Time;durP1;ratioP1;P1;durP2;ratioP2;P2;SDS_P1;SDS_P2;PMS_P1;PMS_P2;Temp;Humidity;BMP_temperature;BMP_pressure;BME280_temperature;BME280_humidity;BME280_pressure;Samples;Min_cycle;Max_cycle;Signal;HPM_P1;HPM_P2
2024/03/25 00:01:07;;;;;;;16.63;2.10;;;5.30;99.90;;;;;;5066551;28;20025;-88
2024/03/25 00:03:33;;;;;;;16.50;1.33;;;5.30;99.90;;;;;;5055310;28;20478;-88
2024/03/25 00:05:59;;;;;;;14.98;1.73;;;5.30;99.90;;;;;;5051716;28;20025;-88
2024/03/25 00:08:25;;;;;;;12.20;1.10;;;5.20;99.90;;;;;;5071377;28;20029;-89
2024/03/25 00:10:50;;;;;;;12.13;1.10;;;5.10;99.90;;;;;;5052421;28;20549;-88
2024/03/25 00:13:16;;;;;;;12.40;0.70;;;5.10;99.90;;;;;;5055753;28;20114;-88
2024/03/25 00:15:43;;;;;;;12.00;1.25;;;5.00;99.90;;;;;;5052437;28;20055;-89
2024/03/25 00:18:11;;;;;;;10.35;1.40;;;4.90;99.90;;;;;;5048628;28;20388;-88
2024/03/25 00:20:36;;;;;;;18.77;1.15;;;4.90;99.90;;;;;;5054202;28;20025;-88
2024/03/25 00:23:03;;;;;;;16.17;1.13;;;4.80;99.90;;;;;;5068013;28;20487;-88
2024/03/25 00:25:29;;;;;;;10.93;0.75;;;4.80;99.90;;;;;;5050943;28;20058;-89
2024/03/25 00:27:54;;;;;;;9.30;0.95;;;4.70;99.90;;;;;;5051806;28;21030;-89
2024/03/25 00:30:20;;;;;;;8.93;0.68;;;4.70;99.90;;;;;;5068632;28;20120;-88
2024/03/25 00:32:46;;;;;;;7.15;0.50;;;4.60;99.90;;;;;;5054273;28;20468;-88
2024/03/25 00:35:12;;;;;;;5.50;0.47;;;4.60;99.90;;;;;;5051822;28;20032;-88
2024/03/25 00:37:37;;;;;;;9.05;1.15;;;4.50;99.90;;;;;;5055738;28;20214;-88
2024/03/25 00:40:04;;;;;;;7.35;0.50;;;4.50;99.90;;;;;;5057074;28;20417;-87
2024/03/25 00:42:30;;;;;;;7.50;0.75;;;4.40;99.90;;;;;;5073577;28;20039;-88
2024/03/25 00:44:56;;;;;;;7.78;0.50;;;4.40;99.90;;;;;;5052868;28;20041;-87
2024/03/25 00:47:21;;;;;;;8.80;0.60;;;4.50;99.90;;;;;;5053814;28;20020;-87
2024/03/25 00:49:47;;;;;;;9.27;0.50;;;4.50;99.90;;;;;;5070852;28;20032;-87
2024/03/25 00:52:13;;;;;;;7.93;0.55;;;4.60;99.90;;;;;;5089397;28;20070;-88
2024/03/25 00:54:38;;;;;;;6.13;0.43;;;4.60;99.90;;;;;;5068403;28;20033;-88
2024/03/25 00:57:04;;;;;;;6.50;0.43;;;4.60;99.90;;;;;;5066407;28;20091;-89
2024/03/25 00:59:30;;;;;;;8.43;0.63;;;4.50;99.90;;;;;;5049625;28;20058;-88
2024/03/25 01:01:55;;;;;;;8.05;0.60;;;4.50;99.90;;;;;;5064936;28;20021;-88
2024/03/25 01:04:21;;;;;;;6.75;0.60;;;4.50;99.90;;;;;;5055061;28;20033;-88
2024/03/25 01:06:47;;;;;;;5.68;0.50;;;4.40;99.90;;;;;;5054067;28;20119;-87
2024/03/25 01:09:12;;;;;;;5.90;0.40;;;4.40;99.90;;;;;;5088763;28;20028;-88
2024/03/25 01:11:38;;;;;;;11.18;0.63;;;4.30;99.90;;;;;;5070237;28;20040;-89
2024/03/25 01:14:04;;;;;;;8.15;0.60;;;4.30;99.90;;;;;;5050338;28;20028;-89
2024/03/25 01:16:29;;;;;;;7.30;0.70;;;4.30;99.90;;;;;;5057584;28;20036;-88
2024/03/25 01:18:55;;;;;;;5.93;0.43;;;4.30;99.90;;;;;;5042222;28;20045;-87
2024/03/25 01:21:21;;;;;;;5.22;0.50;;;4.30;99.90;;;;;;5032805;28;20024;-88
2024/03/25 01:23:46;;;;;;;5.70;0.40;;;4.10;99.90;;;;;;5047581;28;20124;-88
2024/03/25 01:26:12;;;;;;;6.82;0.38;;;4.20;99.90;;;;;;5048459;28;20041;-89
2024/03/25 01:28:38;;;;;;;3.95;0.35;;;4.10;99.90;;;;;;5040102;28;20074;-88
2024/03/25 01:31:04;;;;;;;3.40;0.20;;;4.00;99.90;;;;;;5037689;28;20517;-87
2024/03/25 01:33:30;;;;;;;5.10;0.30;;;4.00;99.90;;;;;;5044658;28;20024;-88
2024/03/25 01:35:55;;;;;;;6.30;0.45;;;3.90;99.90;;;;;;5035148;28;20068;-88
2024/03/25 01:38:21;;;;;;;2.97;0.30;;;4.00;99.90;;;;;;5041171;28;20024;-88
2024/03/25 01:40:47;;;;;;;5.15;0.30;;;3.90;99.90;;;;;;5030787;28;20025;-88
2024/03/25 01:43:13;;;;;;;2.40;0.20;;;3.80;99.90;;;;;;5046704;28;20508;-89
2024/03/25 01:45:39;;;;;;;8.57;0.60;;;3.80;99.90;;;;;;5045487;28;20036;-88
2024/03/25 01:48:09;;;;;;;3.50;0.40;;;3.90;99.90;;;;;;5050804;28;20024;-89
2024/03/25 01:50:43;;;;;;;6.65;0.80;;;3.90;99.90;;;;;;5065839;28;20082;-88
2024/03/25 01:53:10;;;;;;;7.03;0.50;;;3.90;99.90;;;;;;5047477;28;20028;-87
2024/03/25 01:55:38;;;;;;;9.52;0.50;;;4.00;99.90;;;;;;5046577;28;20032;-88
2024/03/25 01:58:08;;;;;;;13.63;1.33;;;3.90;99.90;;;;;;5036285;28;20078;-88
2024/03/25 02:00:34;;;;;;;13.32;1.10;;;4.00;99.90;;;;;;5049705;28;20496;-88
2024/03/25 02:03:00;;;;;;;11.85;0.90;;;4.00;99.90;;;;;;5038757;28;20032;-88
2024/03/25 02:05:26;;;;;;;7.70;1.20;;;4.10;99.90;;;;;;5032906;28;20032;-88
2024/03/25 02:07:53;;;;;;;8.48;0.80;;;4.00;99.90;;;;;;5046460;28;20063;-90
2024/03/25 02:10:20;;;;;;;13.80;1.00;;;4.00;99.90;;;;;;5063767;28;20032;-87
2024/03/25 02:12:47;;;;;;;12.95;1.35;;;4.00;99.90;;;;;;5062500;28;20029;-88
2024/03/25 02:15:13;;;;;;;12.38;1.10;;;4.10;99.90;;;;;;5031952;28;20032;-88
2024/03/25 02:17:39;;;;;;;10.30;0.88;;;4.20;99.90;;;;;;5055564;28;20029;-88
2024/03/25 02:20:07;;;;;;;9.75;1.20;;;4.10;99.90;;;;;;5057637;28;20400;-89
2024/03/25 02:22:36;;;;;;;9.60;0.70;;;4.00;99.90;;;;;;5049999;28;20039;-88
2024/03/25 02:25:05;;;;;;;7.35;0.60;;;4.00;99.90;;;;;;5057606;28;20043;-88
2024/03/25 02:27:32;;;;;;;6.57;0.57;;;3.80;99.90;;;;;;5049272;28;20037;-89
2024/03/25 02:30:09;;;;;;;8.27;0.73;;;3.90;99.90;;;;;;5051551;28;20032;-90
2024/03/25 02:32:35;;;;;;;5.15;0.75;;;3.90;99.90;;;;;;5053782;28;20039;-89
2024/03/25 02:35:03;;;;;;;6.97;0.70;;;3.90;99.90;;;;;;5051682;28;20054;-90
2024/03/25 02:37:29;;;;;;;4.65;0.68;;;3.90;99.90;;;;;;5052602;28;20063;-89
2024/03/25 02:39:59;;;;;;;6.85;0.85;;;3.90;99.90;;;;;;5069939;28;20048;-90
2024/03/25 02:42:28;;;;;;;8.10;0.70;;;3.90;99.90;;;;;;5051885;28;20498;-89
2024/03/25 02:44:55;;;;;;;9.07;0.80;;;3.90;99.90;;;;;;5049101;28;20549;-89
2024/03/25 02:47:21;;;;;;;11.85;1.10;;;4.00;99.90;;;;;;5050690;28;20063;-90
2024/03/25 02:49:47;;;;;;;12.45;1.13;;;4.00;99.90;;;;;;5055822;28;20115;-91
2024/03/25 02:52:13;;;;;;;12.10;1.08;;;4.00;99.90;;;;;;5047333;28;20028;-89
2024/03/25 02:54:38;;;;;;;11.13;0.88;;;4.00;99.90;;;;;;5047134;28;20111;-89
2024/03/25 02:57:04;;;;;;;10.45;0.70;;;4.00;99.90;;;;;;5055047;28;20032;-90
2024/03/25 02:59:30;;;;;;;6.88;0.50;;;4.00;99.90;;;;;;5052494;28;20385;-90
2024/03/25 03:01:55;;;;;;;5.63;0.70;;;3.90;99.90;;;;;;5049828;28;20089;-89
2024/03/25 03:04:21;;;;;;;13.95;0.90;;;4.00;99.90;;;;;;5049089;28;20492;-89
2024/03/25 03:06:47;;;;;;;13.60;1.20;;;4.10;99.90;;;;;;5047573;28;20395;-89
2024/03/25 03:09:12;;;;;;;11.77;0.90;;;4.10;99.90;;;;;;5054972;28;20412;-93
2024/03/25 03:11:38;;;;;;;16.75;1.65;;;4.10;99.90;;;;;;5052405;28;20433;-89
2024/03/25 03:14:04;;;;;;;16.83;1.73;;;4.20;99.90;;;;;;5053101;28;20055;-89
2024/03/25 03:16:30;;;;;;;12.48;0.93;;;4.20;99.90;;;;;;5051267;28;20036;-90
2024/03/25 03:18:56;;;;;;;8.50;1.08;;;4.30;99.90;;;;;;5084388;28;20041;-89
2024/03/25 03:21:21;;;;;;;12.98;0.98;;;4.30;99.90;;;;;;5053598;28;20129;-89
2024/03/25 03:23:47;;;;;;;15.90;1.58;;;4.40;99.90;;;;;;5054926;28;20030;-89
2024/03/25 03:26:13;;;;;;;10.07;1.40;;;4.50;99.90;;;;;;5050991;28;20043;-89
2024/03/25 03:28:40;;;;;;;12.93;1.77;;;4.50;99.90;;;;;;5058146;28;20016;-89
2024/03/25 03:31:06;;;;;;;14.05;1.60;;;4.50;99.90;;;;;;5057426;28;20285;-89
2024/03/25 03:33:32;;;;;;;8.57;0.90;;;4.50;99.90;;;;;;5052929;28;20031;-89
2024/03/25 03:35:57;;;;;;;12.73;1.30;;;4.50;99.90;;;;;;5054449;28;20036;-88
2024/03/25 03:38:23;;;;;;;11.95;0.90;;;4.60;99.90;;;;;;5058820;28;20502;-90
2024/03/25 03:41:06;;;;;;;12.18;1.63;;;4.60;99.90;;;;;;5052667;28;20043;-89
2024/03/25 03:43:32;;;;;;;14.23;1.23;;;4.60;99.90;;;;;;5071527;28;20028;-88
2024/03/25 03:45:58;;;;;;;6.60;0.90;;;4.60;99.90;;;;;;5057490;28;20028;-89
2024/03/25 03:48:23;;;;;;;16.58;0.93;;;4.50;99.90;;;;;;5050355;28;20024;-88
2024/03/25 03:50:49;;;;;;;9.38;1.17;;;4.50;99.90;;;;;;5069549;28;20103;-88
2024/03/25 03:53:14;;;;;;;7.38;0.82;;;4.50;99.90;;;;;;5052605;28;20108;-89
2024/03/25 03:55:40;;;;;;;9.05;1.60;;;4.40;99.90;;;;;;5052109;28;20028;-89
2024/03/25 03:58:06;;;;;;;8.43;1.02;;;4.40;99.90;;;;;;5052799;28;20463;-89
2024/03/25 04:00:35;;;;;;;11.52;1.20;;;4.40;99.90;;;;;;5050720;28;20070;-88
2024/03/25 04:03:02;;;;;;;8.47;1.17;;;4.40;99.90;;;;;;5069330;28;20077;-88
2024/03/25 04:05:31;;;;;;;9.60;1.00;;;4.30;99.90;;;;;;5072224;28;20024;-88
2024/03/25 04:07:56;;;;;;;8.15;0.82;;;4.20;99.90;;;;;;5072560;28;20120;-89
2024/03/25 04:10:23;;;;;;;5.85;0.73;;;4.20;99.90;;;;;;5054148;28;20115;-87
2024/03/25 04:12:49;;;;;;;3.83;0.68;;;4.10;99.90;;;;;;5068491;28;20035;-90
2024/03/25 04:15:17;;;;;;;2.47;0.45;;;4.10;99.90;;;;;;5052086;28;20028;-89
2024/03/25 04:17:48;;;;;;;3.15;0.45;;;3.90;99.90;;;;;;5050085;28;20055;-89
2024/03/25 04:20:15;;;;;;;5.22;0.50;;;3.90;99.90;;;;;;5065409;28;20028;-90
2024/03/25 04:22:44;;;;;;;3.00;0.50;;;3.70;99.90;;;;;;5069254;28;20036;-89
2024/03/25 04:25:16;;;;;;;8.02;0.82;;;3.60;99.90;;;;;;5074473;28;20105;-88
2024/03/25 04:27:43;;;;;;;6.20;0.80;;;3.70;99.90;;;;;;5073564;28;20085;-89
2024/03/25 04:30:11;;;;;;;5.25;0.40;;;3.70;99.90;;;;;;5048082;28;20736;-89
2024/03/25 04:32:39;;;;;;;3.40;0.55;;;3.60;99.90;;;;;;5056753;28;20047;-90
2024/03/25 04:35:06;;;;;;;3.78;0.45;;;3.50;99.90;;;;;;5052383;28;20447;-89
2024/03/25 04:37:32;;;;;;;3.15;0.30;;;3.50;99.90;;;;;;5051623;28;20035;-89
2024/03/25 04:39:58;;;;;;;3.13;0.40;;;3.40;99.90;;;;;;5053809;28;20469;-90
2024/03/25 04:42:24;;;;;;;3.80;0.40;;;3.30;99.90;;;;;;5051869;28;20035;-88
2024/03/25 04:44:50;;;;;;;5.00;0.57;;;3.20;99.90;;;;;;5069327;28;20036;-89
2024/03/25 04:47:16;;;;;;;3.33;0.45;;;3.10;99.90;;;;;;5070812;28;20028;-89
2024/03/25 04:49:42;;;;;;;5.35;0.50;;;3.10;99.90;;;;;;5070196;28;20415;-89
2024/03/25 04:52:08;;;;;;;3.55;0.50;;;3.00;99.90;;;;;;5053731;28;20024;-89
2024/03/25 04:54:33;;;;;;;4.35;0.50;;;3.00;99.90;;;;;;5050038;28;20028;-88
2024/03/25 04:56:59;;;;;;;2.75;0.68;;;2.90;99.90;;;;;;5052410;28;20404;-88
2024/03/25 04:59:28;;;;;;;3.13;0.50;;;2.90;99.90;;;;;;5053165;28;20115;-90
2024/03/25 05:01:53;;;;;;;3.55;0.45;;;2.90;99.90;;;;;;5057042;28;20296;-88
2024/03/25 05:04:20;;;;;;;2.63;0.40;;;2.90;99.90;;;;;;5069467;28;20491;-89
2024/03/25 05:06:46;;;;;;;1.58;0.30;;;2.90;99.90;;;;;;5054134;28;20119;-90
2024/03/25 05:09:11;;;;;;;3.00;0.30;;;2.80;99.90;;;;;;5052902;28;20560;-90
2024/03/25 05:11:37;;;;;;;2.75;0.38;;;2.80;99.90;;;;;;5054848;28;20028;-88
2024/03/25 05:14:03;;;;;;;2.20;0.32;;;2.80;99.90;;;;;;5060783;28;20032;-89
2024/03/25 05:16:28;;;;;;;4.13;0.65;;;2.80;99.90;;;;;;5053981;28;20503;-91
2024/03/25 05:18:54;;;;;;;9.27;0.50;;;2.70;99.90;;;;;;5069270;28;20051;-90
2024/03/25 05:21:20;;;;;;;5.32;0.40;;;2.70;99.90;;;;;;5051439;28;20099;-89
2024/03/25 05:23:46;;;;;;;3.35;0.30;;;2.70;99.90;;;;;;5067726;28;20435;-89
2024/03/25 05:26:11;;;;;;;3.40;0.40;;;2.60;99.90;;;;;;5052278;28;20064;-89
2024/03/25 05:28:59;;;;;;;3.47;0.43;;;2.70;99.90;;;;;;5071217;28;20028;-94
2024/03/25 05:31:28;;;;;;;3.78;0.50;;;2.60;99.90;;;;;;5052320;28;20086;-90
2024/03/25 05:34:02;;;;;;;4.35;0.40;;;2.60;99.90;;;;;;5055330;28;20024;-92
2024/03/25 05:36:29;;;;;;;2.28;0.30;;;2.60;99.90;;;;;;5067523;28;20036;-91
2024/03/25 05:38:59;;;;;;;3.50;0.40;;;2.50;99.90;;;;;;5154074;22;20053;-91
2024/03/25 05:41:28;;;;;;;;;;;2.50;99.90;;;;;;5051861;28;20035;-91
2024/03/25 05:44:06;;;;;;;4.03;0.40;;;2.50;99.90;;;;;;5052442;28;20057;-91
2024/03/25 05:46:41;;;;;;;2.38;0.40;;;2.50;99.90;;;;;;5053650;28;20033;-91
2024/03/25 05:49:10;;;;;;;3.90;0.40;;;2.60;99.90;;;;;;5050278;28;20040;-91
2024/03/25 05:51:36;;;;;;;3.15;0.38;;;2.50;99.90;;;;;;5053291;28;20032;-91
2024/03/25 05:54:02;;;;;;;3.15;0.40;;;2.60;99.90;;;;;;5034766;28;20032;-91
2024/03/25 05:56:31;;;;;;;2.40;0.40;;;2.60;99.90;;;;;;5054263;28;20029;-91
2024/03/25 05:59:01;;;;;;;3.17;0.38;;;2.60;99.90;;;;;;5065864;28;20029;-91
2024/03/25 06:01:37;;;;;;;3.33;0.40;;;2.60;99.90;;;;;;5034059;28;20029;-90
2024/03/25 06:04:04;;;;;;;2.90;0.63;;;2.60;99.90;;;;;;5099993;22;20052;-90
2024/03/25 06:06:30;;;;;;;3.22;0.40;;;2.70;99.90;;;;;;5032848;28;20380;-90
2024/03/25 06:08:58;;;;;;;2.97;0.40;;;2.60;99.90;;;;;;5031819;28;20028;-90
2024/03/25 06:11:30;;;;;;;3.33;0.38;;;2.70;99.90;;;;;;5035225;28;20503;-90
2024/03/25 06:14:07;;;;;;;3.70;0.40;;;2.80;99.90;;;;;;5032796;28;20029;-90
2024/03/25 06:16:33;;;;;;;2.75;0.40;;;2.80;99.90;;;;;;5034938;28;20142;-90
2024/03/25 06:18:59;;;;;;;2.35;0.30;;;2.80;99.90;;;;;;5032352;28;20050;-89
2024/03/25 06:21:24;;;;;;;1.35;0.38;;;2.90;99.90;;;;;;5035217;28;20039;-89
2024/03/25 06:23:50;;;;;;;3.00;0.30;;;2.90;99.90;;;;;;5031879;28;20025;-90
2024/03/25 06:26:16;;;;;;;3.33;0.40;;;2.90;99.90;;;;;;5032241;28;20449;-89
2024/03/25 06:28:42;;;;;;;4.85;0.50;;;2.90;99.90;;;;;;5031295;28;20054;-90
2024/03/25 06:34:17;;;;;;;1.33;0.30;;;3.00;99.90;;;;;;4958720;28;20035;-91
2024/03/25 06:36:46;;;;;;;1.27;0.28;;;3.00;99.90;;;;;;4941402;28;20103;-91
2024/03/25 06:39:12;;;;;;;2.30;0.30;;;3.20;99.90;;;;;;4982594;28;20040;-90
2024/03/25 06:41:38;;;;;;;3.17;0.40;;;3.40;99.90;;;;;;5046954;28;20327;-90
2024/03/25 06:44:05;;;;;;;3.55;0.35;;;3.40;99.90;;;;;;5048488;28;20025;-90
2024/03/25 06:46:30;;;;;;;2.65;0.30;;;3.60;99.90;;;;;;5031454;28;20498;-90
2024/03/25 06:48:56;;;;;;;2.40;0.30;;;3.70;99.90;;;;;;5030466;28;20029;-90
2024/03/25 06:51:23;;;;;;;5.88;0.45;;;3.80;99.90;;;;;;5050051;28;20130;-90
2024/03/25 06:53:49;;;;;;;2.30;0.52;;;4.00;99.90;;;;;;5048178;28;20039;-89
2024/03/25 06:56:15;;;;;;;4.15;0.57;;;4.10;99.90;;;;;;5030509;28;20041;-90
2024/03/25 06:58:41;;;;;;;4.57;0.90;;;4.10;99.90;;;;;;5029713;28;20036;-91
2024/03/25 07:01:13;;;;;;;3.10;0.32;;;4.20;99.90;;;;;;5031632;28;20024;-90
2024/03/25 07:03:39;;;;;;;3.00;0.40;;;4.30;99.90;;;;;;5047965;28;20043;-90
2024/03/25 07:06:05;;;;;;;4.85;0.52;;;4.50;99.90;;;;;;5031115;28;20021;-90
2024/03/25 07:08:31;;;;;;;3.08;0.40;;;4.60;99.90;;;;;;5055736;28;20036;-90
2024/03/25 07:10:58;;;;;;;3.40;0.40;;;4.80;99.90;;;;;;5031894;28;20025;-90
2024/03/25 07:13:23;;;;;;;4.22;0.50;;;4.90;99.90;;;;;;5036042;28;20113;-90
2024/03/25 07:15:50;;;;;;;3.95;0.70;;;5.10;99.90;;;;;;5048064;28;20134;-91
2024/03/25 07:18:16;;;;;;;5.43;0.40;;;5.20;99.90;;;;;;5033411;28;20044;-90
2024/03/25 07:20:43;;;;;;;4.25;0.60;;;5.30;99.90;;;;;;5048312;28;20020;-91
2024/03/25 07:23:09;;;;;;;3.53;0.65;;;5.50;99.90;;;;;;5042956;28;20032;-90
2024/03/25 07:25:35;;;;;;;5.07;0.60;;;5.60;99.90;;;;;;5031073;28;20116;-89
2024/03/25 07:28:04;;;;;;;5.45;0.50;;;5.60;99.90;;;;;;5032732;28;20036;-90
2024/03/25 07:30:32;;;;;;;4.45;0.45;;;5.70;99.90;;;;;;5048822;28;20106;-89
2024/03/25 07:32:58;;;;;;;3.42;0.73;;;5.90;99.90;;;;;;5029655;28;20033;-90
2024/03/25 07:35:25;;;;;;;6.22;0.50;;;6.10;99.90;;;;;;5049412;28;20017;-89
2024/03/25 07:37:51;;;;;;;2.33;0.50;;;6.20;99.90;;;;;;5045840;28;20037;-89
2024/03/25 07:40:20;;;;;;;2.95;0.40;;;6.30;99.90;;;;;;5034900;28;20036;-89
2024/03/25 07:42:47;;;;;;;4.55;0.50;;;6.40;99.90;;;;;;5034911;28;20032;-89
2024/03/25 07:45:12;;;;;;;2.97;0.35;;;6.50;99.90;;;;;;5061482;28;20029;-88
2024/03/25 07:47:38;;;;;;;5.88;0.68;;;6.60;99.90;;;;;;5056354;28;20044;-88
2024/03/25 07:50:05;;;;;;;7.38;0.70;;;6.70;99.90;;;;;;5045994;28;20480;-89
2024/03/25 07:52:31;;;;;;;5.03;0.73;;;6.90;99.90;;;;;;5045701;28;20048;-88
2024/03/25 07:54:57;;;;;;;2.70;0.50;;;6.90;99.90;;;;;;5029994;28;20029;-88
2024/03/25 07:57:23;;;;;;;3.53;0.70;;;7.20;99.90;;;;;;5033265;28;20052;-88
2024/03/25 07:59:49;;;;;;;6.70;0.73;;;7.20;99.90;;;;;;5029364;28;20024;-88
2024/03/25 08:02:15;;;;;;;3.95;1.15;;;7.30;99.90;;;;;;5030721;28;20048;-89
2024/03/25 08:04:41;;;;;;;6.65;1.50;;;7.50;99.90;;;;;;5043363;28;20055;-88
2024/03/25 08:07:07;;;;;;;7.93;0.80;;;7.40;99.90;;;;;;5052421;28;20077;-88
2024/03/25 08:09:33;;;;;;;3.80;0.63;;;7.50;99.90;;;;;;5053325;28;20044;-87
2024/03/25 08:11:59;;;;;;;2.80;0.50;;;7.70;99.90;;;;;;5053038;28;20058;-88
2024/03/25 08:14:25;;;;;;;4.30;0.68;;;8.00;99.90;;;;;;5051880;28;20021;-88
2024/03/25 08:16:51;;;;;;;5.82;0.80;;;8.10;99.90;;;;;;5050871;28;20563;-90
2024/03/25 08:19:16;;;;;;;3.28;0.50;;;8.00;99.90;;;;;;5029474;28;20029;-88
2024/03/25 08:21:42;;;;;;;6.80;0.80;;;7.80;99.90;;;;;;5065534;28;20029;-88
2024/03/25 08:24:08;;;;;;;5.50;0.60;;;7.90;99.90;;;;;;5037154;28;20031;-88
2024/03/25 08:26:33;;;;;;;5.90;1.30;;;8.30;99.90;;;;;;5034808;28;20079;-88
2024/03/25 08:28:59;;;;;;;4.97;0.70;;;8.50;99.90;;;;;;5060261;28;20025;-89
2024/03/25 08:31:25;;;;;;;4.55;0.93;;;8.60;99.90;;;;;;5036972;28;20488;-89
2024/03/25 08:33:51;;;;;;;3.92;0.60;;;8.70;99.90;;;;;;5035133;28;20020;-89
2024/03/25 08:36:18;;;;;;;7.60;0.70;;;8.80;99.90;;;;;;5053147;28;20032;-88
2024/03/25 08:38:44;;;;;;;4.82;0.73;;;8.80;99.90;;;;;;5046517;28;20170;-88
2024/03/25 08:41:10;;;;;;;5.97;0.88;;;9.00;99.90;;;;;;5034068;28;20115;-89
2024/03/25 08:43:35;;;;;;;6.85;0.60;;;9.10;99.90;;;;;;5053938;28;20308;-89
2024/03/25 08:46:03;;;;;;;4.03;0.40;;;9.30;99.90;;;;;;5049165;28;20041;-89
2024/03/25 08:48:29;;;;;;;8.30;0.95;;;9.30;99.90;;;;;;5032166;28;20158;-88
2024/03/25 08:50:55;;;;;;;5.18;0.50;;;9.20;99.90;;;;;;5036222;28;20070;-89
2024/03/25 08:53:21;;;;;;;3.53;0.90;;;9.40;99.90;;;;;;5030489;28;20048;-89
2024/03/25 08:55:47;;;;;;;9.63;1.05;;;9.40;99.90;;;;;;5046919;28;20385;-90
2024/03/25 08:58:13;;;;;;;4.70;0.52;;;9.60;99.90;;;;;;5046811;28;20037;-89
2024/03/25 09:00:39;;;;;;;6.68;0.90;;;9.70;99.90;;;;;;5065321;28;20020;-90
2024/03/25 09:03:05;;;;;;;4.40;0.50;;;9.40;99.90;;;;;;5051499;28;20032;-89
2024/03/25 09:05:31;;;;;;;7.57;0.70;;;9.70;99.90;;;;;;5050516;28;20039;-90
2024/03/25 09:07:58;;;;;;;5.75;0.93;;;9.40;99.90;;;;;;5053296;28;20048;-91
2024/03/25 09:13:09;;;;;;;2.80;0.50;;;9.80;99.90;;;;;;5068870;28;20059;-92
2024/03/25 09:15:38;;;;;;;4.70;0.40;;;10.00;99.90;;;;;;5072691;28;20051;-92
2024/03/25 09:18:04;;;;;;;6.43;0.50;;;9.80;99.90;;;;;;5056136;28;20046;-91
2024/03/25 09:20:33;;;;;;;6.65;0.50;;;9.70;99.90;;;;;;5051791;28;20043;-92
2024/03/25 09:22:59;;;;;;;3.30;0.40;;;10.00;99.90;;;;;;5087410;28;20024;-91
2024/03/25 09:25:35;;;;;;;;;;;10.20;99.90;;;;;;5076042;28;20024;-93
2024/03/25 09:28:15;;;;;;;4.38;0.38;;;10.00;99.90;;;;;;5047468;28;19908;-92
2024/03/25 09:33:47;;;;;;;4.05;0.30;;;10.40;99.90;;;;;;5061062;23;20038;-94
2024/03/25 09:47:47;;;;;;;3.63;0.30;;;10.80;99.90;;;;;;4969805;28;20633;-94
2024/03/25 09:50:19;;;;;;;2.80;0.40;;;11.20;99.90;;;;;;4946451;28;20039;-93
2024/03/25 09:52:55;;;;;;;4.82;0.50;;;11.40;99.90;;;;;;4966088;28;20031;-92
2024/03/25 09:55:20;;;;;;;3.33;0.40;;;11.10;99.90;;;;;;4936604;28;20042;-92
2024/03/25 09:57:47;;;;;;;5.90;0.80;;;11.10;99.90;;;;;;4954208;28;20054;-92
2024/03/25 10:00:14;;;;;;;4.22;0.45;;;10.90;99.90;;;;;;4955619;28;20042;-92
2024/03/25 10:02:42;;;;;;;2.40;0.35;;;10.80;99.90;;;;;;4944165;28;20038;-92
2024/03/25 10:05:08;;;;;;;2.17;0.40;;;10.80;99.90;;;;;;4933369;28;20109;-92
2024/03/25 10:07:35;;;;;;;3.97;0.40;;;10.40;99.90;;;;;;4944819;28;20030;-93
2024/03/25 10:10:07;;;;;;;1.85;0.50;;;10.70;99.90;;;;;;4957734;28;20023;-91
2024/03/25 10:12:35;;;;;;;6.22;0.55;;;11.00;99.90;;;;;;4945460;28;20063;-90
2024/03/25 10:15:01;;;;;;;3.90;0.30;;;11.00;99.90;;;;;;4947070;28;20027;-89
2024/03/25 10:17:26;;;;;;;4.20;0.80;;;11.10;99.90;;;;;;4951330;28;20057;-90
2024/03/25 10:19:55;;;;;;;7.25;0.60;;;10.80;99.90;;;;;;4946923;28;20094;-90
2024/03/25 10:22:23;;;;;;;8.15;1.00;;;10.40;99.90;;;;;;4963751;28;20035;-91
2024/03/25 10:24:50;;;;;;;6.30;1.15;;;10.50;99.90;;;;;;4929250;28;20050;-91
2024/03/25 10:27:21;;;;;;;11.80;1.23;;;10.70;99.90;;;;;;4953589;28;20043;-91
2024/03/25 10:29:57;;;;;;;11.32;1.50;;;10.40;99.90;;;;;;4942203;28;20122;-90
2024/03/25 10:32:28;;;;;;;10.02;1.10;;;9.80;99.90;;;;;;4956198;28;20030;-90
2024/03/25 10:34:56;;;;;;;10.07;0.75;;;9.70;99.90;;;;;;4931295;28;20386;-90
2024/03/25 10:37:26;;;;;;;14.45;1.95;;;9.40;99.90;;;;;;4950672;28;20039;-90
2024/03/25 10:39:56;;;;;;;7.22;0.80;;;9.50;99.90;;;;;;4961200;28;20523;-91
2024/03/25 10:42:23;;;;;;;5.03;0.60;;;10.00;99.90;;;;;;4961947;28;20290;-90
2024/03/25 10:44:52;;;;;;;7.88;1.13;;;10.60;99.90;;;;;;4962224;28;20054;-90
2024/03/25 10:47:22;;;;;;;5.03;0.50;;;11.10;99.90;;;;;;4945318;28;20122;-90
2024/03/25 10:49:55;;;;;;;4.32;0.43;;;11.70;99.90;;;;;;4952521;28;20484;-89
2024/03/25 10:52:23;;;;;;;2.97;0.40;;;11.30;99.90;;;;;;4929845;28;20352;-90
2024/03/25 10:54:49;;;;;;;3.40;0.50;;;10.90;99.90;;;;;;4948340;28;20166;-89
2024/03/25 10:57:16;;;;;;;7.18;0.60;;;10.90;99.90;;;;;;4945524;28;20055;-90
2024/03/25 10:59:43;;;;;;;4.05;0.40;;;10.50;99.90;;;;;;4929618;28;20751;-91
2024/03/25 11:02:12;;;;;;;3.45;0.50;;;10.40;99.90;;;;;;4944546;28;20163;-89
2024/03/25 11:04:40;;;;;;;4.00;0.40;;;10.40;99.90;;;;;;4928403;28;20027;-89
2024/03/25 11:07:15;;;;;;;2.90;0.38;;;10.60;99.90;;;;;;4956865;28;20031;-90
2024/03/25 11:09:42;;;;;;;3.63;0.30;;;10.80;99.90;;;;;;4954367;28;20490;-89
2024/03/25 11:12:12;;;;;;;4.43;0.50;;;10.90;99.90;;;;;;4946608;28;20041;-89
2024/03/25 11:14:38;;;;;;;1.23;0.20;;;11.10;99.90;;;;;;4947369;28;20029;-90
2024/03/25 11:17:18;;;;;;;1.90;0.30;;;11.00;99.90;;;;;;4947542;28;20534;-89
2024/03/25 11:19:43;;;;;;;3.40;0.30;;;10.40;99.90;;;;;;4930685;28;20031;-90
2024/03/25 11:22:10;;;;;;;4.05;0.40;;;10.50;99.90;;;;;;4955527;28;20093;-89
2024/03/25 11:24:37;;;;;;;1.90;0.50;;;10.40;99.90;;;;;;4944910;28;20369;-88
2024/03/25 11:27:06;;;;;;;1.55;0.30;;;10.90;99.90;;;;;;4963434;28;20039;-89
2024/03/25 11:29:32;;;;;;;2.45;0.30;;;11.10;99.90;;;;;;4946606;28;20035;-89
2024/03/25 11:32:02;;;;;;;3.88;0.45;;;11.30;99.90;;;;;;4946710;28;20034;-90
2024/03/25 11:34:28;;;;;;;7.10;0.90;;;11.50;99.90;;;;;;4939665;28;20082;-90
2024/03/25 11:36:56;;;;;;;7.05;1.10;;;11.10;99.90;;;;;;4956280;28;20035;-89
2024/03/25 11:39:22;;;;;;;6.70;1.08;;;10.80;99.90;;;;;;4946985;28;20057;-89
2024/03/25 11:41:48;;;;;;;4.13;0.68;;;10.90;99.90;;;;;;4953341;28;20059;-89
2024/03/25 11:44:14;;;;;;;3.88;0.55;;;11.10;99.90;;;;;;4947979;28;20035;-89
2024/03/25 11:46:40;;;;;;;2.83;0.55;;;11.50;99.90;;;;;;4965285;28;20403;-89
2024/03/25 11:49:06;;;;;;;3.45;0.63;;;11.80;99.90;;;;;;4948050;28;20493;-89
2024/03/25 11:51:35;;;;;;;3.00;0.30;;;11.90;99.90;;;;;;4949524;28;20131;-89
2024/03/25 11:54:05;;;;;;;3.42;0.30;;;11.90;99.90;;;;;;4969213;28;20042;-89
2024/03/25 11:56:31;;;;;;;8.73;0.68;;;11.80;99.90;;;;;;4946221;28;20548;-89
2024/03/25 11:58:59;;;;;;;3.20;0.50;;;11.30;99.90;;;;;;4964375;28;20154;-89
2024/03/25 12:01:25;;;;;;;3.22;0.40;;;11.00;99.90;;;;;;4946402;28;20632;-89
2024/03/25 12:03:51;;;;;;;1.67;0.30;;;11.30;99.90;;;;;;4930799;28;20034;-88
2024/03/25 12:06:16;;;;;;;1.98;0.32;;;11.10;99.90;;;;;;4963277;28;20045;-89
2024/03/25 12:11:17;;;;;;;1.92;0.32;;;11.20;99.90;;;;;;4965616;28;20058;-89
2024/03/25 12:11:28;;;;;;;3.28;0.40;;;11.00;99.90;;;;;;4966339;28;20031;-89
2024/03/25 12:13:54;;;;;;;3.42;0.40;;;11.20;94.20;;;;;;4959874;28;20027;-90
2024/03/25 12:16:20;;;;;;;2.95;0.35;;;11.60;91.50;;;;;;4949935;28;20097;-89
2024/03/25 12:18:46;;;;;;;1.17;0.30;;;12.00;84.60;;;;;;4946062;28;20054;-89
2024/03/25 12:21:12;;;;;;;2.67;0.40;;;12.70;93.90;;;;;;4945252;28;20031;-89
2024/03/25 12:23:37;;;;;;;1.10;0.20;;;12.80;84.60;;;;;;4946371;28;20567;-90
2024/03/25 12:26:04;;;;;;;1.88;0.38;;;12.90;56.80;;;;;;4948264;28;20026;-90
2024/03/25 12:28:36;;;;;;;2.25;0.30;;;13.10;4.30;;;;;;4933142;28;20109;-89
2024/03/25 12:31:02;;;;;;;1.65;0.30;;;13.20;20.50;;;;;;4964511;28;20030;-89
2024/03/25 12:33:28;;;;;;;2.60;0.30;;;13.10;1.00;;;;;;4957846;28;20035;-89
2024/03/25 12:35:54;;;;;;;1.42;0.25;;;12.60;1.00;;;;;;4967061;28;20038;-90
2024/03/25 12:38:24;;;;;;;3.47;0.30;;;13.10;1.00;;;;;;4946852;28;20034;-89
2024/03/25 12:40:50;;;;;;;1.88;0.20;;;12.90;1.00;;;;;;4963676;28;20235;-89
2024/03/25 12:43:16;;;;;;;2.10;0.20;;;13.40;1.00;;;;;;4948962;28;20114;-89
2024/03/25 12:45:42;;;;;;;1.90;0.15;;;13.00;1.00;;;;;;4965486;28;20387;-89
2024/03/25 12:48:08;;;;;;;1.05;0.20;;;12.90;1.00;;;;;;4940931;28;20122;-89
2024/03/25 12:50:34;;;;;;;2.15;0.30;;;12.90;1.00;;;;;;4962747;28;20038;-89
2024/03/25 12:53:00;;;;;;;1.63;0.30;;;12.80;1.00;;;;;;4946136;28;20031;-90
2024/03/25 12:55:25;;;;;;;1.02;0.22;;;12.70;1.00;;;;;;4931838;28;20038;-89
2024/03/25 12:57:51;;;;;;;2.75;0.30;;;12.90;1.00;;;;;;4956839;28;20132;-88
2024/03/25 13:00:17;;;;;;;1.80;0.20;;;12.90;1.00;;;;;;4947493;28;20030;-89
2024/03/25 13:02:44;;;;;;;2.45;0.30;;;13.10;1.00;;;;;;4964256;28;20442;-89
2024/03/25 13:05:09;;;;;;;2.17;0.45;;;13.20;1.00;;;;;;4938301;28;20023;-89
2024/03/25 13:07:35;;;;;;;2.78;0.30;;;12.80;1.00;;;;;;4898549;28;20434;-90
2024/03/25 13:10:03;;;;;;;2.65;0.22;;;13.00;1.00;;;;;;4945412;28;20030;-90
2024/03/25 13:12:28;;;;;;;0.70;0.13;;;13.00;1.00;;;;;;4946586;28;20063;-90